createdAt,value
2017-05-07T00:00:16.886Z,0
2017-05-07T00:00:57.386Z,0
2017-05-07T00:01:37.856Z,0
2017-05-07T00:02:18.990Z,0
2017-05-07T00:02:59.520Z,0
2017-05-07T00:03:39.965Z,0
2017-05-07T00:04:20.433Z,0
2017-05-07T00:05:00.936Z,0
2017-05-07T00:05:41.429Z,0
2017-05-07T00:06:21.885Z,0
2017-05-07T00:07:02.348Z,0
2017-05-07T00:07:42.800Z,0
2017-05-07T00:08:23.227Z,0
2017-05-07T00:09:03.707Z,0
2017-05-07T00:09:44.126Z,0
2017-05-07T00:10:24.573Z,0
2017-05-07T00:11:05.056Z,0
2017-05-07T00:11:45.514Z,0
2017-05-07T00:12:25.936Z,0
2017-05-07T00:13:06.419Z,0
2017-05-07T00:13:46.868Z,0
2017-05-07T00:14:27.345Z,0
2017-05-07T00:15:07.824Z,0
2017-05-07T00:15:48.242Z,0
2017-05-07T00:16:29.406Z,0
2017-05-07T00:19:03.112Z,0
2017-05-07T00:19:43.529Z,0
2017-05-07T00:20:24.023Z,0
2017-05-07T00:21:04.502Z,0
2017-05-07T00:21:44.985Z,0
2017-05-07T00:22:25.453Z,0
2017-05-07T00:23:05.950Z,0
2017-05-07T00:23:46.405Z,0
2017-05-07T00:24:26.893Z,0
2017-05-07T00:25:07.387Z,0
2017-05-07T00:25:47.857Z,0
2017-05-07T00:26:28.445Z,0
2017-05-07T00:27:08.892Z,0
2017-05-07T00:27:49.388Z,0
2017-05-07T00:28:29.894Z,0
2017-05-07T00:29:10.350Z,0
2017-05-07T00:29:50.839Z,0
2017-05-07T00:30:31.295Z,0
2017-05-07T00:31:11.771Z,0
2017-05-07T00:31:52.222Z,0
2017-05-07T00:32:32.713Z,0
2017-05-07T00:33:13.156Z,0
2017-05-07T00:33:53.603Z,0
2017-05-07T00:34:34.059Z,0
2017-05-07T00:35:14.531Z,0
2017-05-07T00:35:54.925Z,0
2017-05-07T00:38:22.882Z,0
2017-05-07T00:39:03.365Z,0
2017-05-07T00:39:43.890Z,0
2017-05-07T00:40:24.290Z,0
2017-05-07T00:41:04.788Z,0
2017-05-07T00:41:45.286Z,0
2017-05-07T00:42:25.748Z,0
2017-05-07T00:43:06.250Z,0
2017-05-07T00:43:46.683Z,0
2017-05-07T00:44:27.172Z,0
2017-05-07T00:45:07.701Z,0
2017-05-07T00:45:48.166Z,0
2017-05-07T00:46:28.639Z,0
2017-05-07T00:47:09.103Z,0
2017-05-07T00:47:49.596Z,0
2017-05-07T00:48:30.082Z,0
2017-05-07T00:49:10.532Z,0
2017-05-07T00:49:50.996Z,0
2017-05-07T00:50:31.471Z,0
2017-05-07T00:51:11.946Z,0
2017-05-07T00:51:52.429Z,0
2017-05-07T00:52:32.884Z,0
2017-05-07T00:53:13.382Z,0
2017-05-07T00:53:53.793Z,0
2017-05-07T00:54:34.245Z,0
2017-05-07T00:55:14.687Z,0
2017-05-07T00:55:55.862Z,0
2017-05-07T00:56:36.327Z,0
2017-05-07T00:57:17.560Z,0
2017-05-07T00:57:58.021Z,0
2017-05-07T00:58:38.495Z,0
2017-05-07T00:59:18.947Z,0
2017-05-07T01:01:57.007Z,0
2017-05-07T01:02:37.549Z,0
2017-05-07T01:03:18.004Z,0
2017-05-07T01:03:58.465Z,0
2017-05-07T01:04:38.960Z,0
2017-05-07T01:05:19.424Z,0
2017-05-07T01:05:59.925Z,0
2017-05-07T01:06:40.399Z,0
2017-05-07T01:07:20.883Z,0
2017-05-07T01:08:01.415Z,0
2017-05-07T01:08:41.873Z,0
2017-05-07T01:09:22.353Z,0
2017-05-07T01:10:02.829Z,0
2017-05-07T01:10:43.291Z,0
2017-05-07T01:11:23.886Z,0
2017-05-07T01:12:04.365Z,0
2017-05-07T01:12:44.806Z,0
2017-05-07T01:13:25.269Z,0
2017-05-07T01:14:05.730Z,0
2017-05-07T01:14:46.158Z,0
2017-05-07T01:15:27.415Z,0
2017-05-07T01:16:07.888Z,0
2017-05-07T01:16:48.317Z,0
2017-05-07T01:17:28.793Z,0
2017-05-07T01:18:09.277Z,0
2017-05-07T01:18:49.770Z,0
2017-05-07T01:19:30.252Z,0
2017-05-07T01:20:10.786Z,0
2017-05-07T01:20:51.224Z,0
2017-05-07T01:21:31.698Z,0
2017-05-07T01:23:59.633Z,0
2017-05-07T01:24:40.107Z,0
2017-05-07T01:25:20.591Z,0
2017-05-07T01:26:01.062Z,0
2017-05-07T01:26:41.595Z,0
2017-05-07T01:27:22.065Z,0
2017-05-07T01:28:02.561Z,0
2017-05-07T01:28:43.037Z,0
2017-05-07T01:29:23.512Z,0
2017-05-07T01:30:04.000Z,0
2017-05-07T01:30:44.490Z,0
2017-05-07T01:31:24.973Z,0
2017-05-07T01:32:05.513Z,0
2017-05-07T01:32:45.995Z,0
2017-05-07T01:33:26.500Z,0
2017-05-07T01:34:06.990Z,0
2017-05-07T01:34:47.435Z,0
2017-05-07T01:35:27.906Z,0
2017-05-07T01:36:08.345Z,0
2017-05-07T01:36:48.822Z,0
2017-05-07T01:39:17.696Z,0
2017-05-07T01:39:58.150Z,0
2017-05-07T01:40:38.687Z,0
2017-05-07T01:41:19.175Z,0
2017-05-07T01:42:00.340Z,0
2017-05-07T01:42:40.780Z,0
2017-05-07T01:43:21.239Z,0
2017-05-07T01:44:02.482Z,0
2017-05-07T01:44:42.947Z,0
2017-05-07T01:45:23.468Z,0
2017-05-07T01:46:03.908Z,0
2017-05-07T01:46:44.366Z,0
2017-05-07T01:49:17.351Z,0
2017-05-07T01:49:57.804Z,0
2017-05-07T01:50:38.259Z,0
2017-05-07T01:51:18.733Z,0
2017-05-07T01:51:59.222Z,0
2017-05-07T01:52:39.716Z,0
2017-05-07T01:53:20.779Z,0
2017-05-07T01:54:01.255Z,0
2017-05-07T01:54:41.713Z,0
2017-05-07T01:55:22.177Z,0
2017-05-07T01:56:02.627Z,0
2017-05-07T01:56:43.086Z,0
2017-05-07T01:57:23.550Z,0
2017-05-07T01:58:04.028Z,0
2017-05-07T01:58:45.144Z,0
2017-05-07T02:01:18.187Z,0
2017-05-07T02:01:58.654Z,0
2017-05-07T02:02:39.145Z,0
2017-05-07T02:03:19.649Z,0
2017-05-07T02:04:00.129Z,0
2017-05-07T02:06:12.842Z,0
2017-05-07T02:06:53.331Z,0
2017-05-07T02:07:34.757Z,0
2017-05-07T02:08:15.267Z,0
2017-05-07T02:08:55.718Z,0
2017-05-07T02:09:36.213Z,0
2017-05-07T02:10:16.699Z,0
2017-05-07T02:10:58.036Z,0
2017-05-07T02:11:38.521Z,0
2017-05-07T02:12:18.990Z,0
2017-05-07T02:12:59.476Z,0
2017-05-07T02:13:39.927Z,0
2017-05-07T02:14:20.378Z,0
2017-05-07T02:15:00.844Z,0
2017-05-07T02:15:41.312Z,0
2017-05-07T02:16:21.802Z,0
2017-05-07T02:17:02.250Z,0
2017-05-07T02:17:42.680Z,0
2017-05-07T02:18:23.124Z,0
2017-05-07T02:19:03.603Z,0
2017-05-07T02:19:44.055Z,0
2017-05-07T02:20:24.533Z,0
2017-05-07T02:21:04.975Z,0
2017-05-07T02:21:45.447Z,0
2017-05-07T02:22:25.895Z,0
2017-05-07T02:23:06.360Z,0
2017-05-07T02:23:46.827Z,0
2017-05-07T02:24:27.283Z,0
2017-05-07T02:25:07.699Z,0
2017-05-07T02:25:48.163Z,0
2017-05-07T02:26:28.628Z,0
2017-05-07T02:27:09.128Z,0
2017-05-07T02:27:49.593Z,0
2017-05-07T02:28:30.244Z,0
2017-05-07T02:30:42.995Z,0
2017-05-07T02:31:23.455Z,0
2017-05-07T02:32:03.910Z,0
2017-05-07T02:32:44.420Z,0
2017-05-07T02:33:24.876Z,0
2017-05-07T02:34:05.324Z,0
2017-05-07T02:36:18.627Z,0
2017-05-07T02:36:59.125Z,0
2017-05-07T02:37:39.610Z,0
2017-05-07T02:38:20.105Z,0
2017-05-07T02:39:00.539Z,0
2017-05-07T02:39:41.047Z,0
2017-05-07T02:40:21.566Z,0
2017-05-07T02:41:02.022Z,0
2017-05-07T02:43:35.061Z,0
2017-05-07T02:44:15.524Z,0
2017-05-07T02:44:56.000Z,0
2017-05-07T02:45:36.462Z,0
2017-05-07T02:46:16.909Z,0
2017-05-07T02:46:57.370Z,0
2017-05-07T02:47:37.827Z,0
2017-05-07T02:48:18.314Z,0
2017-05-07T02:48:58.766Z,0
2017-05-07T02:49:39.252Z,0
2017-05-07T02:50:20.482Z,0
2017-05-07T02:51:00.964Z,0
2017-05-07T02:51:41.388Z,0
2017-05-07T02:52:21.859Z,0
2017-05-07T02:53:02.253Z,0
2017-05-07T02:53:42.717Z,0
2017-05-07T02:54:23.188Z,0
2017-05-07T02:55:03.722Z,0
2017-05-07T02:55:44.149Z,0
2017-05-07T02:56:24.602Z,0
2017-05-07T02:57:05.057Z,0
2017-05-07T02:57:45.515Z,0
2017-05-07T02:58:26.585Z,0
2017-05-07T02:59:07.056Z,0
2017-05-07T02:59:47.500Z,0
2017-05-07T03:00:27.959Z,0
2017-05-07T03:01:08.446Z,0
2017-05-07T03:03:21.191Z,0
2017-05-07T03:04:01.711Z,0
2017-05-07T03:04:42.165Z,0
2017-05-07T03:06:54.881Z,0
2017-05-07T03:07:35.387Z,0
2017-05-07T03:08:15.843Z,0
2017-05-07T03:08:56.301Z,0
2017-05-07T03:09:36.781Z,0
2017-05-07T03:10:17.260Z,0
2017-05-07T03:10:57.719Z,0
2017-05-07T03:11:38.224Z,0
2017-05-07T03:12:18.642Z,0
2017-05-07T03:12:59.109Z,0
2017-05-07T03:13:39.540Z,0
2017-05-07T03:14:19.975Z,0
2017-05-07T03:15:00.416Z,0
2017-05-07T03:15:40.881Z,0
2017-05-07T03:16:21.340Z,0
2017-05-07T03:17:01.775Z,0
2017-05-07T03:17:42.245Z,0
2017-05-07T03:18:22.707Z,0
2017-05-07T03:19:03.174Z,0
2017-05-07T03:19:43.624Z,0
2017-05-07T03:20:24.087Z,0
2017-05-07T03:21:04.540Z,0
2017-05-07T03:21:44.950Z,0
2017-05-07T03:22:25.402Z,0
2017-05-07T03:23:05.856Z,0
2017-05-07T03:23:46.337Z,0
2017-05-07T03:26:19.344Z,0
2017-05-07T03:26:59.817Z,0
2017-05-07T03:27:40.281Z,0
2017-05-07T03:28:20.767Z,0
2017-05-07T03:29:01.255Z,0
2017-05-07T03:29:42.683Z,0
2017-05-07T03:30:23.130Z,0
2017-05-07T03:31:03.591Z,0
2017-05-07T03:31:44.026Z,0
2017-05-07T03:32:24.508Z,0
2017-05-07T03:33:04.968Z,0
2017-05-07T03:33:45.402Z,0
2017-05-07T03:34:25.840Z,0
2017-05-07T03:35:06.323Z,0
2017-05-07T03:35:46.786Z,0
2017-05-07T03:36:27.234Z,0
2017-05-07T03:37:07.680Z,0
2017-05-07T03:37:48.154Z,0
2017-05-07T03:38:28.607Z,0
2017-05-07T03:39:09.620Z,0
2017-05-07T03:39:50.065Z,0
2017-05-07T03:40:30.511Z,0
2017-05-07T03:41:10.976Z,0
2017-05-07T03:41:51.413Z,0
2017-05-07T03:42:31.887Z,0
2017-05-07T03:43:12.381Z,0
2017-05-07T03:43:52.821Z,0
2017-05-07T03:44:33.259Z,0
2017-05-07T03:45:14.686Z,0
2017-05-07T03:45:55.146Z,0
2017-05-07T03:46:35.595Z,0
2017-05-07T03:47:16.077Z,0
2017-05-07T03:47:56.521Z,0
2017-05-07T03:48:36.983Z,0
2017-05-07T03:49:17.422Z,0
2017-05-07T03:49:57.852Z,0
2017-05-07T03:50:38.309Z,0
2017-05-07T03:51:18.782Z,0
2017-05-07T03:51:59.239Z,0
2017-05-07T03:52:39.723Z,0
2017-05-07T03:53:20.762Z,0
2017-05-07T03:54:01.209Z,0
2017-05-07T03:58:21.859Z,0
2017-05-07T03:59:02.339Z,0
2017-05-07T03:59:42.834Z,0
2017-05-07T04:00:23.351Z,0
2017-05-07T04:01:03.841Z,0
2017-05-07T04:01:44.328Z,0
2017-05-07T04:02:24.851Z,0
2017-05-07T04:03:05.316Z,0
2017-05-07T04:03:45.800Z,0
2017-05-07T04:04:26.248Z,0
2017-05-07T04:05:06.794Z,0
2017-05-07T04:05:47.220Z,0
2017-05-07T04:06:27.707Z,0
2017-05-07T04:07:08.139Z,0
2017-05-07T04:07:48.600Z,0
2017-05-07T04:08:29.065Z,0
2017-05-07T04:09:09.513Z,0
2017-05-07T04:09:49.999Z,0
2017-05-07T04:10:30.451Z,0
2017-05-07T04:11:10.879Z,5
2017-05-07T04:11:51.335Z,5
2017-05-07T04:12:31.767Z,5
2017-05-07T04:13:12.214Z,5
2017-05-07T04:13:52.646Z,5
2017-05-07T04:14:33.080Z,5
2017-05-07T04:15:13.527Z,5
2017-05-07T04:15:53.986Z,5
2017-05-07T04:16:34.441Z,5
2017-05-07T04:17:14.905Z,5
2017-05-07T04:17:55.363Z,5
2017-05-07T04:18:35.818Z,5
2017-05-07T04:19:16.269Z,5
2017-05-07T04:19:56.719Z,5
2017-05-07T04:20:37.171Z,5
2017-05-07T04:21:17.610Z,5
2017-05-07T04:21:58.072Z,5
2017-05-07T04:22:38.727Z,5
2017-05-07T04:23:19.185Z,5
2017-05-07T04:23:59.602Z,0
2017-05-07T04:24:40.058Z,0
2017-05-07T04:25:20.495Z,0
2017-05-07T04:26:00.961Z,0
2017-05-07T04:26:41.424Z,5
2017-05-07T04:27:21.909Z,5
2017-05-07T04:28:02.330Z,5
2017-05-07T04:28:42.789Z,5
2017-05-07T04:29:23.250Z,5
2017-05-07T04:30:03.711Z,10
2017-05-07T04:32:36.725Z,15
2017-05-07T04:35:09.728Z,20
2017-05-07T04:35:50.205Z,20
2017-05-07T04:36:30.683Z,20
2017-05-07T04:37:11.169Z,20
2017-05-07T04:37:51.597Z,20
2017-05-07T04:38:32.116Z,20
2017-05-07T04:39:12.591Z,20
2017-05-07T04:39:53.045Z,20
2017-05-07T04:40:33.497Z,20
2017-05-07T04:41:13.912Z,20
2017-05-07T04:41:54.360Z,20
2017-05-07T04:44:27.613Z,15
2017-05-07T04:45:08.085Z,15
2017-05-07T04:45:48.576Z,15
2017-05-07T04:46:29.067Z,15
2017-05-07T04:47:09.548Z,15
2017-05-07T04:47:50.110Z,15
2017-05-07T04:50:02.857Z,15
2017-05-07T04:50:43.335Z,15
2017-05-07T04:51:23.818Z,10
2017-05-07T04:52:04.281Z,10
2017-05-07T04:52:44.752Z,10
2017-05-07T04:53:25.307Z,10
2017-05-07T04:54:05.740Z,10
2017-05-07T04:54:46.181Z,10
2017-05-07T04:55:26.662Z,10
2017-05-07T04:56:07.049Z,10
2017-05-07T04:56:47.493Z,10
2017-05-07T04:57:27.960Z,10
2017-05-07T04:58:08.416Z,10
2017-05-07T04:58:48.873Z,10
2017-05-07T04:59:29.329Z,10
2017-05-07T05:00:09.785Z,10
2017-05-07T05:00:50.237Z,10
2017-05-07T05:01:30.723Z,10
2017-05-07T05:02:11.928Z,10
2017-05-07T05:02:52.369Z,15
2017-05-07T05:03:32.803Z,15
2017-05-07T05:06:10.902Z,15
2017-05-07T05:06:51.383Z,10
2017-05-07T05:07:31.872Z,10
2017-05-07T05:08:12.380Z,5
2017-05-07T05:08:53.711Z,5
2017-05-07T05:09:34.202Z,5
2017-05-07T05:10:14.671Z,10
2017-05-07T05:10:55.169Z,10
2017-05-07T05:11:35.651Z,15
2017-05-07T05:12:16.706Z,15
2017-05-07T05:12:57.178Z,15
2017-05-07T05:13:37.681Z,10
2017-05-07T05:14:18.165Z,10
2017-05-07T05:14:59.310Z,10
2017-05-07T05:15:39.861Z,10
2017-05-07T05:16:20.336Z,10
2017-05-07T05:18:53.379Z,20
2017-05-07T05:21:26.432Z,15
2017-05-07T05:22:06.928Z,15
2017-05-07T05:22:47.399Z,15
2017-05-07T05:23:27.942Z,20
2017-05-07T05:24:08.419Z,20
2017-05-07T05:24:48.947Z,25
2017-05-07T05:25:29.421Z,25
2017-05-07T05:26:09.949Z,25
2017-05-07T05:26:50.519Z,25
2017-05-07T05:27:30.971Z,25
2017-05-07T05:28:11.435Z,25
2017-05-07T05:28:51.890Z,30
2017-05-07T05:29:32.390Z,30
2017-05-07T05:30:12.837Z,30
2017-05-07T05:30:53.242Z,30
2017-05-07T05:31:33.677Z,25
2017-05-07T05:32:14.122Z,20
2017-05-07T05:32:54.605Z,20
2017-05-07T05:33:35.031Z,20
2017-05-07T05:34:15.501Z,20
2017-05-07T05:34:55.964Z,25
2017-05-07T05:35:36.449Z,30
2017-05-07T05:36:16.899Z,30
2017-05-07T05:36:57.372Z,30
2017-05-07T05:37:37.838Z,40
2017-05-07T05:38:18.317Z,50
2017-05-07T05:38:58.771Z,60
2017-05-07T05:39:39.222Z,65
2017-05-07T05:40:19.686Z,70
2017-05-07T05:41:00.232Z,65
2017-05-07T05:41:40.674Z,60
2017-05-07T05:42:21.148Z,65
2017-05-07T05:43:01.617Z,70
2017-05-07T05:43:42.069Z,75
2017-05-07T05:44:22.527Z,85
2017-05-07T05:45:02.943Z,90
2017-05-07T05:45:43.375Z,95
2017-05-07T05:47:56.112Z,100
2017-05-07T05:48:36.622Z,100
2017-05-07T05:49:17.113Z,100
2017-05-07T05:49:57.565Z,105
2017-05-07T05:50:38.018Z,110
2017-05-07T05:51:19.081Z,105
2017-05-07T05:51:59.498Z,100
2017-05-07T05:52:39.955Z,100
2017-05-07T05:54:57.826Z,90
2017-05-07T05:55:38.299Z,90
2017-05-07T05:58:06.216Z,95
2017-05-07T05:58:46.699Z,85
2017-05-07T05:59:27.152Z,85
2017-05-07T06:00:07.666Z,95
2017-05-07T06:00:48.139Z,100
2017-05-07T06:01:28.573Z,95
2017-05-07T06:02:09.047Z,85
2017-05-07T06:02:49.524Z,80
2017-05-07T06:03:30.008Z,90
2017-05-07T06:04:10.438Z,90
2017-05-07T06:04:50.902Z,75
2017-05-07T06:05:31.388Z,70
2017-05-07T06:06:12.380Z,70
2017-05-07T06:06:52.845Z,85
2017-05-07T06:07:33.257Z,85
2017-05-07T06:08:13.681Z,80
2017-05-07T06:08:54.120Z,75
2017-05-07T06:09:34.580Z,75
2017-05-07T06:10:15.064Z,85
2017-05-07T06:10:55.520Z,100
2017-05-07T06:11:35.946Z,110
2017-05-07T06:12:16.381Z,105
2017-05-07T06:12:56.825Z,100
2017-05-07T06:13:37.258Z,80
2017-05-07T06:14:17.747Z,65
2017-05-07T06:14:58.182Z,65
2017-05-07T06:15:38.648Z,65
2017-05-07T06:16:19.102Z,60
2017-05-07T06:16:59.560Z,65
2017-05-07T06:17:40.018Z,70
2017-05-07T06:18:20.476Z,75
2017-05-07T06:19:00.951Z,85
2017-05-07T06:19:41.388Z,90
2017-05-07T06:21:59.212Z,75
2017-05-07T06:22:39.720Z,75
2017-05-07T06:23:20.201Z,85
2017-05-07T06:24:00.705Z,95
2017-05-07T06:24:41.178Z,100
2017-05-07T06:25:21.667Z,110
2017-05-07T06:26:02.154Z,95
2017-05-07T06:26:42.589Z,90
2017-05-07T06:27:23.028Z,90
2017-05-07T06:28:03.495Z,100
2017-05-07T06:28:44.011Z,105
2017-05-07T06:29:24.467Z,110
2017-05-07T06:30:04.942Z,110
2017-05-07T06:30:46.198Z,105
2017-05-07T06:31:26.802Z,100
2017-05-07T06:32:07.401Z,105
2017-05-07T06:32:48.493Z,105
2017-05-07T06:33:29.344Z,100
2017-05-07T06:34:10.134Z,95
2017-05-07T06:34:50.780Z,95
2017-05-07T06:35:31.773Z,95
2017-05-07T06:36:12.536Z,100
2017-05-07T06:36:52.969Z,100
2017-05-07T06:37:33.395Z,100
2017-05-07T06:38:13.832Z,100
2017-05-07T06:38:54.268Z,105
2017-05-07T06:39:34.709Z,110
2017-05-07T06:40:15.159Z,110
2017-05-07T06:40:55.581Z,110
2017-05-07T06:41:36.042Z,110
2017-05-07T06:42:16.489Z,110
2017-05-07T06:42:56.931Z,110
2017-05-07T06:43:37.357Z,105
2017-05-07T06:44:17.801Z,95
2017-05-07T06:44:58.277Z,90
2017-05-07T06:45:38.721Z,95
2017-05-07T06:46:19.332Z,100
2017-05-07T06:46:59.744Z,105
2017-05-07T06:47:40.246Z,100
2017-05-07T06:48:20.674Z,105
2017-05-07T06:49:01.119Z,105
2017-05-07T06:49:41.566Z,105
2017-05-07T06:50:22.037Z,105
2017-05-07T06:51:02.501Z,105
2017-05-07T06:51:42.960Z,100
2017-05-07T06:52:23.456Z,95
2017-05-07T06:53:03.903Z,95
2017-05-07T06:53:44.338Z,95
2017-05-07T06:54:24.775Z,100
2017-05-07T06:55:05.212Z,95
2017-05-07T06:55:45.655Z,100
2017-05-07T06:56:26.111Z,95
2017-05-07T06:57:06.551Z,95
2017-05-07T06:57:47.010Z,100
2017-05-07T06:58:27.439Z,100
2017-05-07T06:59:07.927Z,100
2017-05-07T06:59:48.394Z,95
2017-05-07T07:00:28.808Z,95
2017-05-07T07:01:09.287Z,95
2017-05-07T07:01:49.713Z,100
2017-05-07T07:02:30.192Z,105
2017-05-07T07:03:10.639Z,100
2017-05-07T07:03:51.102Z,100
2017-05-07T07:04:32.127Z,95
2017-05-07T07:05:12.593Z,95
2017-05-07T07:05:53.045Z,95
2017-05-07T07:06:33.484Z,95
2017-05-07T07:07:14.720Z,100
2017-05-07T07:07:55.181Z,105
2017-05-07T07:08:35.629Z,105
2017-05-07T07:09:16.059Z,100
2017-05-07T07:09:56.506Z,105
2017-05-07T07:10:36.955Z,110
2017-05-07T07:11:17.378Z,100
2017-05-07T07:11:57.823Z,95
2017-05-07T07:12:38.247Z,90
2017-05-07T07:13:18.744Z,100
2017-05-07T07:13:59.321Z,105
2017-05-07T07:14:39.785Z,105
2017-05-07T07:15:20.252Z,100
2017-05-07T07:16:00.720Z,105
2017-05-07T07:16:41.170Z,105
2017-05-07T07:17:21.638Z,105
2017-05-07T07:18:02.087Z,105
2017-05-07T07:18:43.213Z,105
2017-05-07T07:19:23.636Z,100
2017-05-07T07:20:04.104Z,100
2017-05-07T07:20:44.558Z,95
2017-05-07T07:21:25.024Z,90
2017-05-07T07:22:05.474Z,95
2017-05-07T07:22:45.921Z,95
2017-05-07T07:23:26.346Z,95
2017-05-07T07:24:06.790Z,95
2017-05-07T07:24:47.243Z,100
2017-05-07T07:25:27.673Z,100
2017-05-07T07:26:08.124Z,105
2017-05-07T07:26:48.622Z,105
2017-05-07T07:27:29.035Z,110
2017-05-07T07:28:09.441Z,100
2017-05-07T07:28:49.894Z,105
2017-05-07T07:29:30.345Z,110
2017-05-07T07:30:10.817Z,105
2017-05-07T07:30:51.266Z,115
2017-05-07T07:31:31.744Z,120
2017-05-07T07:32:12.140Z,110
2017-05-07T07:32:52.601Z,125
2017-05-07T07:33:33.052Z,120
2017-05-07T07:34:13.472Z,115
2017-05-07T07:34:53.883Z,120
2017-05-07T07:35:34.318Z,120
2017-05-07T07:36:14.741Z,135
2017-05-07T07:36:55.188Z,145
2017-05-07T07:37:35.632Z,140
2017-05-07T07:38:16.054Z,140
2017-05-07T07:38:56.494Z,155
2017-05-07T07:39:36.924Z,145
2017-05-07T07:40:17.377Z,150
2017-05-07T07:40:57.843Z,145
2017-05-07T07:41:38.294Z,155
2017-05-07T07:42:18.758Z,155
2017-05-07T07:42:59.219Z,155
2017-05-07T07:43:39.663Z,155
2017-05-07T07:44:20.134Z,145
2017-05-07T07:45:00.600Z,150
2017-05-07T07:45:41.049Z,155
2017-05-07T07:46:22.980Z,155
2017-05-07T07:47:03.397Z,150
2017-05-07T07:47:43.904Z,150
2017-05-07T07:48:24.922Z,155
2017-05-07T07:49:05.382Z,155
2017-05-07T07:49:45.791Z,155
2017-05-07T07:50:26.240Z,150
2017-05-07T07:51:06.670Z,140
2017-05-07T07:51:47.100Z,145
2017-05-07T07:52:27.584Z,145
2017-05-07T07:53:07.997Z,140
2017-05-07T07:53:48.488Z,135
2017-05-07T07:54:28.958Z,130
2017-05-07T07:55:09.406Z,125
2017-05-07T07:55:49.853Z,130
2017-05-07T07:56:30.316Z,130
2017-05-07T07:57:11.577Z,125
2017-05-07T07:57:51.228Z,125
2017-05-07T07:58:31.686Z,125
2017-05-07T07:59:12.175Z,130
2017-05-07T07:59:52.611Z,130
2017-05-07T08:00:33.071Z,125
2017-05-07T08:01:13.529Z,135
2017-05-07T08:01:53.982Z,130
2017-05-07T08:02:34.441Z,125
2017-05-07T08:03:15.410Z,135
2017-05-07T08:03:55.877Z,140
2017-05-07T08:04:36.328Z,150
2017-05-07T08:05:16.786Z,150
2017-05-07T08:05:57.241Z,150
2017-05-07T08:06:37.672Z,150
2017-05-07T08:07:18.129Z,160
2017-05-07T08:07:58.552Z,155
2017-05-07T08:08:38.988Z,150
2017-05-07T08:09:19.446Z,145
2017-05-07T08:09:59.890Z,160
2017-05-07T08:10:40.610Z,170
2017-05-07T08:11:21.050Z,170
2017-05-07T08:12:01.519Z,175
2017-05-07T08:12:41.976Z,180
2017-05-07T08:13:22.442Z,180
2017-05-07T08:14:02.896Z,180
2017-05-07T08:14:43.354Z,180
2017-05-07T08:15:23.816Z,175
2017-05-07T08:16:04.276Z,180
2017-05-07T08:16:44.741Z,190
2017-05-07T08:17:25.193Z,185
2017-05-07T08:18:05.696Z,185
2017-05-07T08:18:46.153Z,180
2017-05-07T08:19:26.617Z,180
2017-05-07T08:20:07.087Z,170
2017-05-07T08:20:47.538Z,165
2017-05-07T08:21:28.019Z,165
2017-05-07T08:22:08.438Z,170
2017-05-07T08:22:50.644Z,170
2017-05-07T08:23:31.068Z,155
2017-05-07T08:24:11.611Z,160
2017-05-07T08:24:52.065Z,170
2017-05-07T08:25:32.530Z,175
2017-05-07T08:26:12.995Z,175
2017-05-07T08:26:53.444Z,165
2017-05-07T08:27:33.895Z,170
2017-05-07T08:28:14.352Z,160
2017-05-07T08:28:54.769Z,165
2017-05-07T08:29:35.217Z,160
2017-05-07T08:30:15.686Z,170
2017-05-07T08:30:56.136Z,175
2017-05-07T08:31:37.518Z,175
2017-05-07T08:32:17.976Z,170
2017-05-07T08:32:58.458Z,160
2017-05-07T08:33:38.897Z,160
2017-05-07T08:34:19.364Z,165
2017-05-07T08:34:59.828Z,170
2017-05-07T08:35:40.270Z,170
2017-05-07T08:36:20.735Z,170
2017-05-07T08:37:01.173Z,165
2017-05-07T08:37:41.653Z,170
2017-05-07T08:40:19.762Z,160
2017-05-07T08:41:00.251Z,165
2017-05-07T08:41:40.746Z,170
2017-05-07T08:42:21.229Z,165
2017-05-07T08:43:01.732Z,155
2017-05-07T08:43:42.183Z,145
2017-05-07T08:46:15.214Z,155
2017-05-07T08:46:55.702Z,170
2017-05-07T08:47:36.182Z,170
2017-05-07T08:48:16.671Z,175
2017-05-07T08:48:57.149Z,170
2017-05-07T08:49:37.661Z,165
2017-05-07T08:50:18.137Z,165
2017-05-07T08:50:58.621Z,175
2017-05-07T08:51:39.111Z,175
2017-05-07T08:52:19.629Z,170
2017-05-07T08:53:00.103Z,165
2017-05-07T08:53:40.594Z,165
2017-05-07T08:54:21.070Z,170
2017-05-07T08:55:01.564Z,165
2017-05-07T08:55:42.065Z,165
2017-05-07T08:56:22.521Z,160
2017-05-07T08:57:03.015Z,160
2017-05-07T08:57:43.454Z,165
2017-05-07T08:58:23.958Z,150
2017-05-07T08:59:04.520Z,140
2017-05-07T08:59:44.948Z,135
2017-05-07T09:00:25.353Z,155
2017-05-07T09:03:03.463Z,140
2017-05-07T09:03:43.960Z,145
2017-05-07T09:04:24.438Z,155
2017-05-07T09:05:04.993Z,165
2017-05-07T09:05:45.488Z,165
2017-05-07T09:06:25.966Z,165
2017-05-07T09:07:06.468Z,165
2017-05-07T09:07:46.933Z,165
2017-05-07T09:10:15.081Z,195
2017-05-07T09:10:55.577Z,200
2017-05-07T09:11:36.068Z,205
2017-05-07T09:12:16.565Z,220
2017-05-07T09:12:57.098Z,220
2017-05-07T09:13:37.495Z,230
2017-05-07T09:14:17.999Z,235
2017-05-07T09:14:58.485Z,245
2017-05-07T09:15:38.974Z,250
2017-05-07T09:16:19.464Z,225
2017-05-07T09:16:59.983Z,180
2017-05-07T09:17:40.446Z,150
2017-05-07T09:18:20.945Z,150
2017-05-07T09:19:01.414Z,195
2017-05-07T09:19:41.898Z,220
2017-05-07T09:20:22.380Z,225
2017-05-07T09:21:02.845Z,235
2017-05-07T09:21:43.296Z,220
2017-05-07T09:22:23.762Z,220
2017-05-07T09:23:04.210Z,220
2017-05-07T09:23:44.662Z,250
2017-05-07T09:24:25.149Z,295
2017-05-07T09:25:05.629Z,320
2017-05-07T09:25:46.068Z,340
2017-05-07T09:26:26.500Z,315
2017-05-07T09:27:06.952Z,280
2017-05-07T09:27:47.399Z,260
2017-05-07T09:28:27.832Z,230
2017-05-07T09:29:08.246Z,195
2017-05-07T09:29:48.695Z,180
2017-05-07T09:30:29.150Z,205
2017-05-07T09:31:09.602Z,200
2017-05-07T09:31:50.015Z,200
2017-05-07T09:32:30.442Z,175
2017-05-07T09:33:10.885Z,165
2017-05-07T09:33:51.337Z,170
2017-05-07T09:36:09.862Z,185
2017-05-07T09:36:50.335Z,185
2017-05-07T09:37:30.886Z,180
2017-05-07T09:38:11.311Z,185
2017-05-07T09:38:51.798Z,185
2017-05-07T09:39:32.284Z,190
2017-05-07T09:40:12.721Z,180
2017-05-07T09:40:53.187Z,175
2017-05-07T09:41:33.661Z,180
2017-05-07T09:42:14.136Z,170
2017-05-07T09:42:54.613Z,175
2017-05-07T09:43:35.057Z,185
2017-05-07T09:44:15.477Z,195
2017-05-07T09:44:55.915Z,195
2017-05-07T09:45:36.344Z,190
2017-05-07T09:46:16.837Z,195
2017-05-07T09:46:57.293Z,205
2017-05-07T09:47:37.811Z,200
2017-05-07T09:48:18.322Z,195
2017-05-07T09:48:58.863Z,190
2017-05-07T09:49:39.406Z,155
2017-05-07T09:50:19.955Z,180
2017-05-07T09:51:00.551Z,195
2017-05-07T09:51:41.074Z,205
2017-05-07T09:52:21.541Z,210
2017-05-07T09:53:02.030Z,220
2017-05-07T09:53:42.492Z,215
2017-05-07T09:54:22.953Z,200
2017-05-07T09:55:03.402Z,205
2017-05-07T09:55:43.828Z,210
2017-05-07T09:57:56.562Z,240
2017-05-07T09:58:37.063Z,255
2017-05-07T09:59:17.600Z,260
2017-05-07T09:59:58.082Z,270
2017-05-07T10:00:38.562Z,260
2017-05-07T10:01:19.057Z,235
2017-05-07T10:01:59.559Z,225
2017-05-07T10:02:40.029Z,225
2017-05-07T10:03:20.494Z,220
2017-05-07T10:04:00.964Z,225
2017-05-07T10:04:41.454Z,225
2017-05-07T10:05:21.951Z,210
2017-05-07T10:06:02.431Z,205
2017-05-07T10:08:35.437Z,205
2017-05-07T10:09:15.993Z,195
2017-05-07T10:09:56.454Z,195
2017-05-07T10:10:36.940Z,225
2017-05-07T10:11:17.432Z,225
2017-05-07T10:11:58.053Z,230
2017-05-07T10:12:38.409Z,225
2017-05-07T10:13:18.889Z,220
2017-05-07T10:13:59.410Z,215
2017-05-07T10:14:39.895Z,210
2017-05-07T10:15:20.377Z,210
2017-05-07T10:16:00.885Z,205
2017-05-07T10:16:41.362Z,205
2017-05-07T10:17:21.846Z,200
2017-05-07T10:18:02.330Z,195
2017-05-07T10:18:43.737Z,200
2017-05-07T10:19:24.159Z,195
2017-05-07T10:20:04.614Z,195
2017-05-07T10:20:45.063Z,195
2017-05-07T10:21:25.512Z,195
2017-05-07T10:22:05.995Z,195
2017-05-07T10:22:46.447Z,195
2017-05-07T10:23:26.863Z,195
2017-05-07T10:24:07.330Z,195
2017-05-07T10:24:47.777Z,195
2017-05-07T10:25:28.242Z,190
2017-05-07T10:26:08.708Z,185
2017-05-07T10:26:49.148Z,185
2017-05-07T10:27:29.603Z,180
2017-05-07T10:28:10.069Z,180
2017-05-07T10:28:50.528Z,175
2017-05-07T10:29:31.000Z,170
2017-05-07T10:32:09.080Z,160
2017-05-07T10:32:49.577Z,150
2017-05-07T10:33:30.052Z,140
2017-05-07T10:34:10.530Z,135
2017-05-07T10:34:51.866Z,135
2017-05-07T10:35:32.342Z,130
2017-05-07T10:36:13.392Z,130
2017-05-07T10:36:53.864Z,130
2017-05-07T10:37:34.337Z,135
2017-05-07T10:38:14.826Z,135
2017-05-07T10:40:52.978Z,140
2017-05-07T10:41:33.464Z,140
2017-05-07T10:42:13.947Z,145